Pagrindinis puslapis
METAR-TAF:

METAR-TAF

Oro uostai :

Abu Dabis, Jungtiniai Arabų Emyratai

platuma: 24-26N, ilguma: 054-39E, Aukštis: 16 m

Dabartinis oras

Ataskaita buvo paskelbta 16 minutes, ne 15:00 UTC
Vėjas 12 kt iš Vakarų/Šiaurės Vakarų
Temperatūra 18°C
Drėgmė 64%
Slėgis 1020 hPa
Matomumas 10 km arba daugiau
Mažai debesys ne aukštis 4500 ft

METAR: OMAA 271500Z 29012KT 9999 FEW045 18/11 Q1020 NOSIG

Laikas: 19:16 (15:16 UTC)

Prognozė

Ataskaita buvo paskelbta 4 valandos ir 16 minutes, ne 11:00 UTC
Prognozė galioja nuo 27 metu 12 UTC su 28 metu 18 UTC
Vėjas 16 kt iš Šiaurės Vakarų
Matomumas 10 km arba daugiau
Išsisklaidę debesys ne aukštis 4000 ft
Tapsmas
nuo 27 metu 20 UTC su 27 metu 22 UTC
Vėjas 6 kt iš Šiaurės Vakarų

TAF: OMAA 271100Z 2712/2818 31016KT 9999 SCT040 BECMG 2720/2722 31006KT

Orai ataskaitas ir orų prognozės (METAR, TAF).

turimą stotys yra geltonos ir raudonos taškus žemėlapyje.

Perkelti pele per norėdami pamatyti stoties vardą.

Tada spustelėkite, norėdami matyti oro stebėjimo ir prognozės.

Norėdami pakeisti žemėlapį: spustelėkite ant žalios mygtukų su juodo kryžiaus žemyn,; žalią mygtuką su brūkšneliu, jei norite nutolinti; arba žalių rodyklių gretimoms žemėlapius.


METAR-TAF: